Current Weather

Boeing Fld/King County Intl

Seattle, Washington (KBFI)

Report from: Sunday, July 14, 2024 3:53 AM PDT
Current time: Sunday, July 14, 2024 4:42 AM PDT

Nearby weather – Weather history – Daily summaries
Weather forecast

Temperature19.4°C (66.9°F)
Dew point12.8°C (55.0°F)
Winds Calm
Visibility10 mi. (16.1 km)
Clouds Sky clear
Altimeter29.99 in.Hg (1016 mB)
Relative humidity66 %
Density altitude650 ft. (198 m)
Sea-level pressure101.5 kPa (1015 mB, 29.98 in.Hg)
Remarks Automated weather observing station with precipitation discriminator
Flight conditions Visual Meteorological Conditions
Raw dataKBFI 141053Z 00000KT 10SM CLR 19/13 A2999 RMK AO2 SLP154 T01940128
An error has occurred. This application may no longer respond until reloaded. Reload 🗙